Indian Springs, Nevada Weather observations

Data are for observation ending at time listed.
 Day   Time    Ave.   Ave.  Ave.  Vector   Max.   Stn.    Total    Solar   Ave.  
  of    of     Air    Rel.  Wind   Wind    Wind   Baro.  Precip.   Rad.    Soil  
Year   Day     Temp.  Hum.  Speed  Dir.    Gust   Pres.                    Temp. 
2016   (PST)    F      %     mph   deg.    mph     mb.     in.     W/m2     F   
------------------------------------------------------------------------------
 181    4:30   76.1    33    0.5   187      1.2   906.5    0.00       3    91.8
 181    4:40   77.2    32    0.5   198      1.6   906.5    0.00      13    91.7
 181    4:50   77.6    32    0.3   254      1.4   906.5    0.00      21    91.5
 181    5:00   78.5    30    1.0   256      2.4   906.7    0.00      43    91.3
 181    5:10   78.8    30    1.6   297      2.8   906.9    0.00      73    91.2
 181    5:20   78.7    30    1.3   272      3.5   907.1    0.00     113    91.1
 181    5:30   79.8    28    1.5   251      2.8   907.1    0.00     146    90.9
 181    5:40   81.9    27    0.8   235      2.7   907.6    0.00     178    90.8
 181    5:50   83.2    27    1.7    25      4.3   908.0    0.00     218    90.6
 181    6:00   81.9    27    1.4    55      3.7   908.1    0.00     249    90.5
 181    6:10   81.8    27    0.9   153      2.1   908.2    0.00     278    90.4
 181    6:20   82.7    28    0.6   132      1.8   908.2    0.00     312    90.4
 181    6:30   86.1    25    0.1   121      0.7   908.4    0.00     347    90.4
 181    6:40   89.2    23    0.2    37      1.0   908.3    0.00     386    90.3
 181    6:50   90.6    22    0.9    60      2.5   908.7    0.00     424    90.3
 181    7:00   89.0    23    1.3    75      3.4   908.9    0.00     457    90.4
 181    7:10   90.0    21    0.5    65      3.1   909.2    0.00     492    90.5
 181    7:20   90.5    21    1.0   331      2.4   909.3    0.00     525    90.6
 181    7:30   90.4    21    1.5    21      3.6   909.4    0.00     566    90.7
 181    7:40   91.3    21    1.3    30      3.6   909.5    0.00     600    90.9
 181    7:50   91.7    20    1.5    25      3.4   909.6    0.00     637    91.1
 181    8:00   92.5    20    0.9   338      2.6   909.6    0.00     665    91.3
 181    8:10   93.3    20    1.4   356      4.0   909.9    0.00     694    91.5
 181    8:20   93.4    19    2.0    34      4.7   909.8    0.00     725    91.8
 181    8:30   93.5    18    2.2    36      4.5   909.9    0.00     754    92.1
 181    8:40   93.8    18    2.0    28      4.7   909.9    0.00     784    92.4
 181    8:50   94.6    18    1.4     6      3.3   910.0    0.00     806    92.7
 181    9:00   95.7    17    1.7    36      4.5   909.9    0.00     828    93.0
 181    9:10   96.0    17    1.8    30      4.9   909.9    0.00     853    93.4
 181    9:20   96.0    16    2.4    50      6.3   910.0    0.00     874    93.8
 181    9:30   96.2    16    3.0    39      6.9   910.0    0.00     894    94.2
 181    9:40   97.1    15    3.2    75      8.0   910.1    0.00     929    94.6
 181    9:50   97.4    15    5.0    86     12.9   910.0    0.00     955    95.0
 181   10:00   97.5    15    4.8    76     13.2   910.0    0.00     984    95.5
 181   10:10   97.9    15    4.2    69     10.7   910.1    0.00    1018    95.9
 181   10:20   98.9    15    5.8    73     12.0   910.0    0.00    1079    96.4
 181   10:30   99.2    14    5.7   101     13.7   910.0    0.00     904    96.8
 181   10:40   99.0    14    4.7    95     12.9   910.0    0.00    1042    97.3
 181   10:50   99.3    14    3.4   113     11.5   909.9    0.00     411    97.8
 181   11:00   97.6    15    2.8   133      7.5   909.8    0.00     283    98.3
 181   11:10   96.3    16    7.2   220     13.0   909.7    0.00     228    98.7
 181   11:20   95.5    14    6.5   224     12.4   909.2    0.00     218    99.1
 181   11:30   96.6    12    4.0   237      7.9   908.9    0.00     286    99.5
 181   11:40   96.7    13    5.0   220      9.3   908.8    0.00     579    99.7
 181   11:50   97.7    13    3.8   226      6.5   908.7    0.00    1131    99.8
 181   12:00   98.8    13    2.5   195      6.2   908.7    0.00    1015    99.9
 181   12:10   99.5    14    2.7   198      8.0   908.7    0.00    1081    100.0
 181   12:20  100.5    14    3.3   151      9.8   908.7    0.00    1123    100.2
 181   12:30  101.1    14    4.5   115     15.0   908.6    0.00    1109    100.4
 181   12:40  100.9    14    5.1   116     11.9   908.4    0.00    1087    100.7
 181   12:50  101.2    13    4.7   119     13.1   908.4    0.00     783    101.0
 181   13:00  100.7    13    4.7   111     11.7   908.2    0.00     591    101.4
 181   13:10  101.2    13    4.8   104     12.8   907.9    0.00     573    101.7
 181   13:20  100.8    13    4.1    97     11.5   907.7    0.00     425    102.1
 181   13:30  101.6    13    4.3    95      9.9   907.5    0.00     668    102.6
 181   13:40  102.6    13    2.8   113      9.2   907.4    0.00     532    102.9
 181   13:50  102.6    13    2.8   123      8.3   907.2    0.00     860    103.3
 181   14:00  101.7    13    3.1    81      7.1   907.1    0.00     877    103.6
 181   14:10  102.9    12    1.9   180      6.1   907.1    0.00     988    103.9
 181   14:20  103.0    13    2.9   182      9.6   907.1    0.00     922    104.2
 181   14:30  101.4    13    2.7     0      7.5   907.0    0.00     272    104.5
 181   14:40  100.3    13    2.0    14      5.9   906.9    0.00     164    104.8
 181   14:50  101.3    13    1.9    18      5.0   906.7    0.00     749    105.2
 181   15:00  102.7    12    3.6    54      7.8   906.5    0.00     823    105.4
 181   15:10  102.5    12    3.6    63      8.0   906.4    0.00     562    105.6
 181   15:20  102.8    12    3.4    56      7.3   906.5    0.00     657    105.8
 181   15:30  101.9    13    5.5    38     18.3   906.6    0.00     514    106.0
 181   15:40   98.6    15    8.3    31     26.1   906.4    0.00     187    106.1
 181   15:50   97.8    15    6.4    36     13.7   906.2    0.00     230    106.3
 181   16:00   98.3    15    6.7    29     15.3   906.0    0.00     338    106.4
 181   16:10   97.8    15    6.6    25     14.0   905.9    0.00     377    106.4
 181   16:20   99.1    14    4.9    27     12.6   905.9    0.00     599    106.4
 181   16:30  100.4    13    4.0    24     10.2   905.8    0.00     592    106.4
 181   16:40  100.5    13    3.3    18      9.5   905.9    0.00     525    106.3
 181   16:50  100.7    13    4.5    57     12.3   906.0    0.00     517    106.3
 181   17:00  100.9    13    4.9    63     13.1   906.0    0.00     465    106.1
 181   17:10   99.9    14    5.5    73     11.7   906.1    0.00     387    106.0
 181   17:20   99.4    14    4.9    79      9.1   906.1    0.00     319    105.9
 181   17:30   99.3    14    5.1    85     12.1   906.0    0.00     267    105.8
 181   17:40   98.6    14    5.9    93     11.7   906.0    0.00     229    105.7
 181   17:50   97.5    14    6.1    93     13.1   906.0    0.00      40    105.6
 181   18:00   96.8    15    5.4    81      9.9   906.0    0.00      32    105.4
 181   18:10   96.3    15    2.9    97      6.9   905.9    0.00      27    105.3
 181   18:20   96.2    15    1.1   126      3.1   905.8    0.00      35    105.1
 181   18:30   96.3    15    0.5   116      2.5   905.7    0.00      15    104.9
 181   18:40   95.5    16    0.2   124      1.0   905.7    0.00      12    104.7
 181   18:50   95.1    16    1.1   195      2.1   905.7    0.00       9    104.5
 181   19:00   94.9    16    0.5   194      1.3   905.4    0.00       3    104.3
 181   19:10   93.9    18    0.1   118      0.9   905.3    0.00       3    104.0
 181   19:20   92.3    19    0.4    32      1.9   905.4    0.00       3    103.8
 181   19:30   91.3    19    6.7    32     16.1   905.8    0.00       0    103.5
 181   19:40   90.9    19    4.7    12     13.2   906.2    0.00       0    103.3
 181   19:50   90.2    20    2.5     7      7.7   906.4    0.00       0    103.1
 181   20:00   89.6    21    1.9     4      6.4   906.4    0.00       0    102.8
 181   20:10   89.1    21    2.3    19      6.0   906.7    0.00       0    102.6
 181   20:20   88.3    22    3.5    25     10.7   906.7    0.00       0    102.3
 181   20:30   88.4    22    5.4    29     14.0   906.8    0.00       0    102.1
 181   20:40   88.2    22    4.9    29     13.2   906.9    0.00       0    101.8
 181   20:50   88.0    22    4.7    23     13.1   907.1    0.00       0    101.5
 181   21:00   88.0    21    4.5    26     10.7   907.1    0.00       0    101.3
 181   21:10   87.9    21    5.6    28     14.5   907.0    0.00       0    101.0
 181   21:20   87.7    21    4.8    31     13.4   907.0    0.00       0    100.8
 181   21:30   87.6    21    4.4    37     10.7   907.1    0.00       0    100.5
 181   21:40   87.2    21    4.8    55     12.1   907.1    0.00       0    100.3
 181   21:50   87.1    21    4.3    39     12.0   907.0    0.00       0    100.1
 181   22:00   86.6    22    3.1     3      9.6   907.0    0.00       0    99.8
 181   22:10   86.8    22    3.1    13      6.9   906.9    0.00       0    99.6
 181   22:20   86.3    22    1.9    66      5.6   906.8    0.00       0    99.4
 181   22:30   86.1    22    1.0   272      3.4   906.8    0.00       0    99.2
 181   22:40   85.5    23    0.6   149      2.1   906.6    0.00       0    99.0
 181   22:50   84.7    24    1.0   196      2.6   906.5    0.00       0    98.7
 181   23:00   84.8    24    1.9   198      3.2   906.4    0.00       0    98.5
 181   23:10   84.5    24    0.5   259      1.5   906.3    0.00       0    98.3
 181   23:20   83.8    25    1.0   286      3.1   906.2    0.00       0    98.1
 181   23:30   83.9    24    2.2   258      4.4   906.1    0.00       0    97.9
 181   23:40   83.8    24    2.7   238      4.3   906.0    0.00       0    97.7
 181   23:50   84.1    24    1.1   214      2.9   905.8    0.00       0    97.4
 182    0:00   84.0    24    0.8   225      1.9   905.6    0.00       0    97.2
 182    0:10   83.4    25    0.8   298      1.7   905.5    0.00       0    97.0
 182    0:20   81.4    27    0.5    58      1.5   905.4    0.00       0    96.8
 182    0:30   79.9    28    0.4    80      1.3   905.3    0.00       0    96.6
 182    0:40   79.0    30    1.2    76      2.4   905.2    0.00       0    96.4
 182    0:50   78.8    29    0.3   114      1.5   905.1    0.00       0    96.2
 182    1:00   78.5    29    0.3   116      1.6   905.1    0.00       0    96.0
 182    1:10   78.1    29    0.2   131      1.2   904.9    0.00       0    95.9
 182    1:20   78.1    30    0.3    96      1.5   905.0    0.00       0    95.7
 182    1:30   77.6    30    1.5    73      3.4   904.8    0.00       0    95.5
 182    1:40   78.0    30    2.4    71      4.3   904.7    0.00       0    95.3
 182    1:50   78.0    30    1.5    80      3.7   904.6    0.00       0    95.1
 182    2:00   78.0    29    0.1   125      1.1   904.6    0.00       0    94.9
 182    2:10   78.1    30    0.3    78      2.3   904.5    0.00       0    94.7
 182    2:20   79.1    28    1.9    47      4.3   904.5    0.00       0    94.5
 182    2:30   79.0    29    1.6    47      2.9   904.6    0.00       0    94.3
 182    2:40   78.8    28    0.5    23      2.6   904.6    0.00       0    94.2
 182    2:50   78.1    29    0.1   234      0.7   904.7    0.00       0    94.0
 182    3:00   76.9    30    1.0    28      2.8   904.5    0.00       0    93.8
 182    3:10   75.9    30    0.8   114      1.6   904.5    0.00       0    93.7
 182    3:20   75.4    32    0.1   132      0.9   904.4    0.00       0    93.5
 182    3:30   75.1    32    1.0    58      2.0   904.2    0.00       0    93.3
 182    3:40   75.6    32    1.1    32      2.1   904.3    0.00       0    93.2
 182    3:50   76.0    32    0.8   348      2.0   904.3    0.00       0    93.0
 182    4:00   77.4    30    1.9   237      3.9   904.4    0.00       0    92.8
 182    4:10   77.3    29    1.5   245      2.7   904.5    0.00       0    92.7
 182    4:20   76.9    30    1.3   290      3.0   904.6    0.00       0    92.5

Return to Indian Springs, Nevada graphs page.


Western Regional Climate Center,wrcc@dri.edu